Orgoglio — IJDQ — position and weather

sailwx.info

Track history (hours):
 
Tides and Currents Weather Stations Pressure Air Temp Water Temp Dewpoint Dewpoint Depression Visibility Wind Speed Wind Dir Waves Ship Positions

Orgoglio

Last reported at 2018-Feb-14 05:48 UTC. Time now 2018-Feb-19 04:05 UTC.
Position N 39°54' E 016°40'.

; draft 2 m.

Type: Fishing. MMSI: 247134150.

Date/timePositionNaut miles runAvg speedWind from/ knotsBaromVisibWave heightAir tempDewpointWater temp
2018-Feb-14 05:48N 39°54' E 016°40'2 0.1
2018-Feb-13 06:28N 39°55' E 016°42'2 3.2
2018-Feb-13 05:45N 39°55' E 016°39'1 2.6
2018-Feb-13 05:18N 39°54' E 016°39'  
2018-Feb-07 08:43N 39°43' E 016°35'1 1.4
2018-Feb-07 08:19N 39°42' E 016°36'1 2.6
2018-Feb-07 07:56N 39°41' E 016°36'2 2.4
2018-Feb-07 07:08N 39°40' E 016°38'1 2.6
2018-Feb-07 06:53N 39°40' E 016°39'1 2.6
2018-Feb-07 06:30N 39°39' E 016°40'1 2.5
2018-Feb-07 06:00N 39°39' E 016°41'1 2.5
2018-Feb-07 05:30N 39°38' E 016°43'0 0.6
2018-Feb-07 04:53N 39°38' E 016°43'6 0.4
2018-Feb-06 12:54N 39°42' E 016°37'7 0.2
2018-Feb-05 08:04N 39°41' E 016°46'0 2.4
2018-Feb-05 07:58N 39°41' E 016°47'1 2.4
2018-Feb-05 07:30N 39°40' E 016°48'5 0.9
2018-Feb-05 02:11N 39°42' E 016°42'  
Track history (hours):
 
Tides and Currents Weather Stations Pressure Air Temp Water Temp Dewpoint Dewpoint Depression Visibility Wind Speed Wind Dir Waves Ship Positions

Orgoglio

Last reported at 2018-Feb-14 05:48 UTC. Time now 2018-Feb-19 04:05 UTC.
Position N 39°54' E 016°40'.

; draft 2 m.

Type: Fishing. MMSI: 247134150.

Date/timePositionNaut miles runAvg speedWind from/ knotsBaromVisibWave heightAir tempDewpointWater temp
2018-Feb-14 05:48N 39°54' E 016°40'2 0.1
2018-Feb-13 06:28N 39°55' E 016°42'2 3.2
2018-Feb-13 05:45N 39°55' E 016°39'1 2.6
2018-Feb-13 05:18N 39°54' E 016°39'  
2018-Feb-07 08:43N 39°43' E 016°35'1 1.4
2018-Feb-07 08:19N 39°42' E 016°36'1 2.6
2018-Feb-07 07:56N 39°41' E 016°36'2 2.4
2018-Feb-07 07:08N 39°40' E 016°38'1 2.6
2018-Feb-07 06:53N 39°40' E 016°39'1 2.6
2018-Feb-07 06:30N 39°39' E 016°40'1 2.5
2018-Feb-07 06:00N 39°39' E 016°41'1 2.5
2018-Feb-07 05:30N 39°38' E 016°43'0 0.6
2018-Feb-07 04:53N 39°38' E 016°43'6 0.4
2018-Feb-06 12:54N 39°42' E 016°37'7 0.2
2018-Feb-05 08:04N 39°41' E 016°46'0 2.4
2018-Feb-05 07:58N 39°41' E 016°47'1 2.4
2018-Feb-05 07:30N 39°40' E 016°48'5 0.9
2018-Feb-05 02:11N 39°42' E 016°42'  

Dump ship's entire track history